sensor_id;sensor_type;location;lat;lon;timestamp;P1;durP1;ratioP1;P2;durP2;ratioP2
13366;SDS011;6752;52.612;13.630;2022-10-30T00:04:57;31.77;;;23.15;;
13366;SDS011;6752;52.612;13.630;2022-10-30T00:15:04;32.15;;;25.12;;
13366;SDS011;6752;52.612;13.630;2022-10-30T00:25:11;28.70;;;24.08;;
13366;SDS011;6752;52.612;13.630;2022-10-30T00:30:14;35.90;;;26.92;;
13366;SDS011;6752;52.612;13.630;2022-10-30T00:35:19;34.65;;;27.10;;
13366;SDS011;6752;52.612;13.630;2022-10-30T00:40:22;34.72;;;27.87;;
13366;SDS011;6752;52.612;13.630;2022-10-30T00:45:24;31.52;;;24.63;;
13366;SDS011;6752;52.612;13.630;2022-10-30T00:50:31;32.28;;;23.55;;
13366;SDS011;6752;52.612;13.630;2022-10-30T00:55:33;34.83;;;26.33;;
13366;SDS011;6752;52.612;13.630;2022-10-30T01:00:37;28.58;;;24.08;;
13366;SDS011;6752;52.612;13.630;2022-10-30T01:05:40;27.33;;;22.77;;
13366;SDS011;6752;52.612;13.630;2022-10-30T01:10:42;35.55;;;25.50;;
13366;SDS011;6752;52.612;13.630;2022-10-30T01:16:08;36.65;;;23.15;;
13366;SDS011;6752;52.612;13.630;2022-10-30T01:26:32;29.90;;;22.87;;
13366;SDS011;6752;52.612;13.630;2022-10-30T01:37:15;21.80;;;18.02;;
13366;SDS011;6752;52.612;13.630;2022-10-30T01:53:51;17.30;;;14.27;;
13366;SDS011;6752;52.612;13.630;2022-10-30T02:03:18;17.50;;;14.20;;
13366;SDS011;6752;52.612;13.630;2022-10-30T02:08:22;16.30;;;13.25;;
13366;SDS011;6752;52.612;13.630;2022-10-30T02:13:25;15.45;;;12.48;;
13366;SDS011;6752;52.612;13.630;2022-10-30T02:18:30;15.43;;;13.07;;
13366;SDS011;6752;52.612;13.630;2022-10-30T02:23:32;15.80;;;12.40;;
13366;SDS011;6752;52.612;13.630;2022-10-30T02:28:35;16.50;;;12.98;;
13366;SDS011;6752;52.612;13.630;2022-10-30T02:33:37;15.98;;;13.88;;
13366;SDS011;6752;52.612;13.630;2022-10-30T02:38:40;15.45;;;13.45;;
13366;SDS011;6752;52.612;13.630;2022-10-30T02:43:45;15.57;;;13.50;;
13366;SDS011;6752;52.612;13.630;2022-10-30T02:48:50;13.97;;;12.47;;
13366;SDS011;6752;52.612;13.630;2022-10-30T02:53:53;12.60;;;11.23;;
13366;SDS011;6752;52.612;13.630;2022-10-30T03:04:00;11.12;;;9.90;;
13366;SDS011;6752;52.612;13.630;2022-10-30T03:14:05;14.50;;;12.88;;
13366;SDS011;6752;52.612;13.630;2022-10-30T03:19:07;14.43;;;12.45;;
13366;SDS011;6752;52.612;13.630;2022-10-30T03:24:13;12.13;;;10.13;;
13366;SDS011;6752;52.612;13.630;2022-10-30T03:29:15;12.57;;;10.95;;
13366;SDS011;6752;52.612;13.630;2022-10-30T03:39:22;13.90;;;12.40;;
13366;SDS011;6752;52.612;13.630;2022-10-30T03:44:27;21.58;;;17.62;;
13366;SDS011;6752;52.612;13.630;2022-10-30T03:49:29;33.53;;;22.73;;
13366;SDS011;6752;52.612;13.630;2022-10-30T03:54:35;35.97;;;22.85;;
13366;SDS011;6752;52.612;13.630;2022-10-30T03:59:37;32.07;;;23.93;;
13366;SDS011;6752;52.612;13.630;2022-10-30T04:04:40;27.80;;;19.73;;
13366;SDS011;6752;52.612;13.630;2022-10-30T04:09:42;29.50;;;18.40;;
13366;SDS011;6752;52.612;13.630;2022-10-30T04:14:48;24.48;;;17.65;;
13366;SDS011;6752;52.612;13.630;2022-10-30T04:19:50;30.65;;;19.80;;
13366;SDS011;6752;52.612;13.630;2022-10-30T04:24:55;23.70;;;18.00;;
13366;SDS011;6752;52.612;13.630;2022-10-30T04:29:59;23.90;;;16.62;;
13366;SDS011;6752;52.612;13.630;2022-10-30T04:35:05;18.40;;;14.65;;
13366;SDS011;6752;52.612;13.630;2022-10-30T04:45:12;20.12;;;14.32;;
13366;SDS011;6752;52.612;13.630;2022-10-30T04:50:14;21.17;;;15.98;;
13366;SDS011;6752;52.612;13.630;2022-10-30T04:55:19;19.92;;;14.75;;
13366;SDS011;6752;52.612;13.630;2022-10-30T05:00:22;20.10;;;17.02;;
13366;SDS011;6752;52.612;13.630;2022-10-30T05:05:27;17.27;;;14.98;;
13366;SDS011;6752;52.612;13.630;2022-10-30T05:15:34;28.60;;;17.37;;
13366;SDS011;6752;52.612;13.630;2022-10-30T05:20:37;25.08;;;18.62;;
13366;SDS011;6752;52.612;13.630;2022-10-30T05:25:42;19.58;;;15.05;;
13366;SDS011;6752;52.612;13.630;2022-10-30T05:30:44;25.62;;;18.20;;
13366;SDS011;6752;52.612;13.630;2022-10-30T05:35:50;41.00;;;26.08;;
13366;SDS011;6752;52.612;13.630;2022-10-30T05:40:52;36.15;;;22.80;;
13366;SDS011;6752;52.612;13.630;2022-10-30T05:45:57;34.13;;;21.25;;
13366;SDS011;6752;52.612;13.630;2022-10-30T05:51:00;25.35;;;20.58;;
13366;SDS011;6752;52.612;13.630;2022-10-30T05:56:05;21.17;;;16.60;;
13366;SDS011;6752;52.612;13.630;2022-10-30T06:01:08;19.40;;;15.77;;
13366;SDS011;6752;52.612;13.630;2022-10-30T06:06:13;25.55;;;16.70;;
13366;SDS011;6752;52.612;13.630;2022-10-30T06:11:15;22.90;;;16.83;;
13366;SDS011;6752;52.612;13.630;2022-10-30T06:16:18;22.25;;;16.75;;
13366;SDS011;6752;52.612;13.630;2022-10-30T06:21:20;21.75;;;16.83;;
13366;SDS011;6752;52.612;13.630;2022-10-30T06:26:25;34.28;;;24.00;;
13366;SDS011;6752;52.612;13.630;2022-10-30T06:31:28;36.92;;;23.48;;
13366;SDS011;6752;52.612;13.630;2022-10-30T06:36:33;29.70;;;21.10;;
13366;SDS011;6752;52.612;13.630;2022-10-30T06:41:35;27.40;;;20.75;;
13366;SDS011;6752;52.612;13.630;2022-10-30T06:46:41;23.70;;;18.85;;
13366;SDS011;6752;52.612;13.630;2022-10-30T06:51:43;30.30;;;17.75;;
13366;SDS011;6752;52.612;13.630;2022-10-30T06:56:48;28.70;;;18.85;;
13366;SDS011;6752;52.612;13.630;2022-10-30T07:01:51;32.83;;;20.10;;
13366;SDS011;6752;52.612;13.630;2022-10-30T07:06:53;32.33;;;20.77;;
13366;SDS011;6752;52.612;13.630;2022-10-30T07:11:55;32.60;;;21.87;;
13366;SDS011;6752;52.612;13.630;2022-10-30T07:16:58;32.05;;;21.52;;
13366;SDS011;6752;52.612;13.630;2022-10-30T07:22:00;31.62;;;20.20;;
13366;SDS011;6752;52.612;13.630;2022-10-30T07:27:02;32.38;;;21.08;;
13366;SDS011;6752;52.612;13.630;2022-10-30T07:32:05;33.85;;;19.50;;
13366;SDS011;6752;52.612;13.630;2022-10-30T07:37:07;28.02;;;20.15;;
13366;SDS011;6752;52.612;13.630;2022-10-30T07:42:10;24.12;;;18.05;;
13366;SDS011;6752;52.612;13.630;2022-10-30T07:47:12;30.23;;;16.23;;
13366;SDS011;6752;52.612;13.630;2022-10-30T07:52:14;33.53;;;19.85;;
13366;SDS011;6752;52.612;13.630;2022-10-30T07:57:17;27.35;;;18.27;;
13366;SDS011;6752;52.612;13.630;2022-10-30T08:02:19;27.45;;;17.67;;
13366;SDS011;6752;52.612;13.630;2022-10-30T08:12:24;30.60;;;18.10;;
13366;SDS011;6752;52.612;13.630;2022-10-30T08:17:26;28.08;;;16.67;;
13366;SDS011;6752;52.612;13.630;2022-10-30T08:22:28;27.15;;;15.25;;
13366;SDS011;6752;52.612;13.630;2022-10-30T08:32:32;26.67;;;15.15;;
13366;SDS011;6752;52.612;13.630;2022-10-30T08:37:35;27.48;;;15.38;;
13366;SDS011;6752;52.612;13.630;2022-10-30T08:42:37;30.12;;;14.73;;
13366;SDS011;6752;52.612;13.630;2022-10-30T08:47:40;24.80;;;13.68;;
13366;SDS011;6752;52.612;13.630;2022-10-30T08:52:42;24.67;;;15.32;;
13366;SDS011;6752;52.612;13.630;2022-10-30T08:57:44;20.75;;;13.45;;
13366;SDS011;6752;52.612;13.630;2022-10-30T09:02:47;23.30;;;13.62;;
13366;SDS011;6752;52.612;13.630;2022-10-30T09:07:49;25.45;;;13.27;;
13366;SDS011;6752;52.612;13.630;2022-10-30T09:12:54;23.83;;;12.35;;
13366;SDS011;6752;52.612;13.630;2022-10-30T09:17:57;21.48;;;12.27;;
13366;SDS011;6752;52.612;13.630;2022-10-30T09:23:02;24.52;;;12.37;;
13366;SDS011;6752;52.612;13.630;2022-10-30T09:28:04;19.33;;;12.05;;
13366;SDS011;6752;52.612;13.630;2022-10-30T09:33:09;18.30;;;10.60;;
13366;SDS011;6752;52.612;13.630;2022-10-30T09:43:21;17.40;;;9.88;;
13366;SDS011;6752;52.612;13.630;2022-10-30T10:04:15;25.08;;;9.82;;
13366;SDS011;6752;52.612;13.630;2022-10-30T10:24:20;18.77;;;11.02;;
13366;SDS011;6752;52.612;13.630;2022-10-30T10:50:21;18.27;;;8.93;;
13366;SDS011;6752;52.612;13.630;2022-10-30T10:55:24;21.02;;;9.65;;
13366;SDS011;6752;52.612;13.630;2022-10-30T11:00:25;21.20;;;10.10;;
13366;SDS011;6752;52.612;13.630;2022-10-30T11:05:30;17.95;;;10.40;;
13366;SDS011;6752;52.612;13.630;2022-10-30T11:10:38;17.80;;;8.88;;
13366;SDS011;6752;52.612;13.630;2022-10-30T11:15:45;17.30;;;9.77;;
13366;SDS011;6752;52.612;13.630;2022-10-30T11:20:56;21.73;;;9.43;;
13366;SDS011;6752;52.612;13.630;2022-10-30T11:31:22;21.33;;;7.53;;
13366;SDS011;6752;52.612;13.630;2022-10-30T11:41:25;17.98;;;8.00;;
13366;SDS011;6752;52.612;13.630;2022-10-30T11:51:30;16.75;;;6.50;;
13366;SDS011;6752;52.612;13.630;2022-10-30T11:56:37;22.45;;;7.03;;
13366;SDS011;6752;52.612;13.630;2022-10-30T12:06:41;18.70;;;7.55;;
13366;SDS011;6752;52.612;13.630;2022-10-30T12:11:44;19.70;;;6.87;;
13366;SDS011;6752;52.612;13.630;2022-10-30T12:16:46;20.08;;;7.32;;
13366;SDS011;6752;52.612;13.630;2022-10-30T12:26:54;18.17;;;7.78;;
13366;SDS011;6752;52.612;13.630;2022-10-30T12:37:06;22.15;;;7.12;;
13366;SDS011;6752;52.612;13.630;2022-10-30T12:42:24;17.95;;;7.40;;
13366;SDS011;6752;52.612;13.630;2022-10-30T12:57:45;19.75;;;6.87;;
13366;SDS011;6752;52.612;13.630;2022-10-30T13:08:19;14.00;;;6.40;;
13366;SDS011;6752;52.612;13.630;2022-10-30T13:13:41;23.10;;;6.68;;
13366;SDS011;6752;52.612;13.630;2022-10-30T13:23:51;20.83;;;7.10;;
13366;SDS011;6752;52.612;13.630;2022-10-30T13:29:04;21.87;;;6.30;;
13366;SDS011;6752;52.612;13.630;2022-10-30T13:39:57;12.35;;;5.32;;
13366;SDS011;6752;52.612;13.630;2022-10-30T13:50:36;15.98;;;5.75;;
13366;SDS011;6752;52.612;13.630;2022-10-30T13:55:35;15.52;;;6.50;;
13366;SDS011;6752;52.612;13.630;2022-10-30T14:00:44;14.68;;;5.15;;
13366;SDS011;6752;52.612;13.630;2022-10-30T14:06:03;19.62;;;6.37;;
13366;SDS011;6752;52.612;13.630;2022-10-30T14:11:06;17.25;;;6.10;;
13366;SDS011;6752;52.612;13.630;2022-10-30T14:21:51;15.20;;;6.55;;
13366;SDS011;6752;52.612;13.630;2022-10-30T14:26:56;14.60;;;6.35;;
13366;SDS011;6752;52.612;13.630;2022-10-30T14:42:34;14.80;;;5.90;;
13366;SDS011;6752;52.612;13.630;2022-10-30T14:47:32;13.38;;;6.00;;
13366;SDS011;6752;52.612;13.630;2022-10-30T14:53:11;16.48;;;6.00;;
13366;SDS011;6752;52.612;13.630;2022-10-30T14:58:28;13.90;;;5.75;;
13366;SDS011;6752;52.612;13.630;2022-10-30T15:03:46;23.80;;;6.30;;
13366;SDS011;6752;52.612;13.630;2022-10-30T15:09:12;13.80;;;5.45;;
13366;SDS011;6752;52.612;13.630;2022-10-30T15:14:27;14.35;;;6.62;;
13366;SDS011;6752;52.612;13.630;2022-10-30T15:19:35;15.52;;;6.37;;
13366;SDS011;6752;52.612;13.630;2022-10-30T15:24:37;15.98;;;6.15;;
13366;SDS011;6752;52.612;13.630;2022-10-30T15:29:39;14.27;;;6.32;;
13366;SDS011;6752;52.612;13.630;2022-10-30T15:34:55;16.02;;;6.85;;
13366;SDS011;6752;52.612;13.630;2022-10-30T15:40:07;15.55;;;6.32;;
13366;SDS011;6752;52.612;13.630;2022-10-30T15:45:04;15.65;;;5.87;;
13366;SDS011;6752;52.612;13.630;2022-10-30T15:50:08;14.48;;;6.28;;
13366;SDS011;6752;52.612;13.630;2022-10-30T15:55:13;11.85;;;5.60;;
13366;SDS011;6752;52.612;13.630;2022-10-30T16:00:34;14.20;;;5.90;;
13366;SDS011;6752;52.612;13.630;2022-10-30T16:05:20;13.00;;;6.05;;
13366;SDS011;6752;52.612;13.630;2022-10-30T16:10:22;11.60;;;5.70;;
13366;SDS011;6752;52.612;13.630;2022-10-30T16:15:25;14.15;;;6.43;;
13366;SDS011;6752;52.612;13.630;2022-10-30T16:20:26;13.57;;;5.87;;
13366;SDS011;6752;52.612;13.630;2022-10-30T16:25:29;18.95;;;5.28;;
13366;SDS011;6752;52.612;13.630;2022-10-30T16:30:31;14.02;;;5.60;;
13366;SDS011;6752;52.612;13.630;2022-10-30T16:35:36;15.32;;;6.65;;
13366;SDS011;6752;52.612;13.630;2022-10-30T16:40:39;10.50;;;5.32;;
13366;SDS011;6752;52.612;13.630;2022-10-30T16:45:45;17.05;;;6.03;;
13366;SDS011;6752;52.612;13.630;2022-10-30T16:50:47;13.80;;;6.43;;
13366;SDS011;6752;52.612;13.630;2022-10-30T16:55:53;13.43;;;5.87;;
13366;SDS011;6752;52.612;13.630;2022-10-30T17:00:59;17.73;;;5.72;;
13366;SDS011;6752;52.612;13.630;2022-10-30T17:06:04;15.85;;;6.57;;
13366;SDS011;6752;52.612;13.630;2022-10-30T17:11:05;14.07;;;6.03;;
13366;SDS011;6752;52.612;13.630;2022-10-30T17:16:12;19.62;;;6.75;;
13366;SDS011;6752;52.612;13.630;2022-10-30T17:21:14;12.90;;;6.37;;
13366;SDS011;6752;52.612;13.630;2022-10-30T17:26:18;13.38;;;4.95;;
13366;SDS011;6752;52.612;13.630;2022-10-30T17:31:21;9.45;;;4.75;;
13366;SDS011;6752;52.612;13.630;2022-10-30T17:36:40;9.95;;;5.20;;
13366;SDS011;6752;52.612;13.630;2022-10-30T17:41:43;13.02;;;5.43;;
13366;SDS011;6752;52.612;13.630;2022-10-30T17:46:45;10.55;;;5.05;;
13366;SDS011;6752;52.612;13.630;2022-10-30T17:51:47;11.25;;;5.32;;
13366;SDS011;6752;52.612;13.630;2022-10-30T17:56:50;13.48;;;5.15;;
13366;SDS011;6752;52.612;13.630;2022-10-30T18:01:52;11.95;;;5.43;;
13366;SDS011;6752;52.612;13.630;2022-10-30T18:06:55;12.25;;;6.72;;
13366;SDS011;6752;52.612;13.630;2022-10-30T18:11:57;15.38;;;6.57;;
13366;SDS011;6752;52.612;13.630;2022-10-30T18:16:59;15.18;;;6.93;;
13366;SDS011;6752;52.612;13.630;2022-10-30T18:22:02;13.15;;;6.40;;
13366;SDS011;6752;52.612;13.630;2022-10-30T18:27:04;13.48;;;6.72;;
13366;SDS011;6752;52.612;13.630;2022-10-30T18:32:07;11.80;;;5.93;;
13366;SDS011;6752;52.612;13.630;2022-10-30T18:37:09;13.52;;;7.68;;
13366;SDS011;6752;52.612;13.630;2022-10-30T18:42:11;13.73;;;8.38;;
13366;SDS011;6752;52.612;13.630;2022-10-30T18:47:14;15.25;;;6.60;;
13366;SDS011;6752;52.612;13.630;2022-10-30T18:52:16;14.05;;;6.07;;
13366;SDS011;6752;52.612;13.630;2022-10-30T18:57:18;12.68;;;5.57;;
13366;SDS011;6752;52.612;13.630;2022-10-30T19:02:22;10.88;;;6.35;;
13366;SDS011;6752;52.612;13.630;2022-10-30T19:07:23;17.02;;;6.57;;
13366;SDS011;6752;52.612;13.630;2022-10-30T19:12:26;16.08;;;6.80;;
13366;SDS011;6752;52.612;13.630;2022-10-30T19:17:28;15.05;;;8.70;;
13366;SDS011;6752;52.612;13.630;2022-10-30T19:22:31;17.87;;;8.73;;
13366;SDS011;6752;52.612;13.630;2022-10-30T19:27:36;18.30;;;9.45;;
13366;SDS011;6752;52.612;13.630;2022-10-30T19:32:43;16.67;;;9.20;;
13366;SDS011;6752;52.612;13.630;2022-10-30T19:37:44;17.90;;;9.63;;
13366;SDS011;6752;52.612;13.630;2022-10-30T19:42:47;21.55;;;10.75;;
13366;SDS011;6752;52.612;13.630;2022-10-30T19:47:50;17.83;;;10.48;;
13366;SDS011;6752;52.612;13.630;2022-10-30T19:52:52;27.30;;;12.60;;
13366;SDS011;6752;52.612;13.630;2022-10-30T19:57:54;23.33;;;14.07;;
13366;SDS011;6752;52.612;13.630;2022-10-30T20:02:57;15.40;;;11.20;;
13366;SDS011;6752;52.612;13.630;2022-10-30T20:08:06;17.80;;;11.18;;
13366;SDS011;6752;52.612;13.630;2022-10-30T20:13:09;19.65;;;11.43;;
13366;SDS011;6752;52.612;13.630;2022-10-30T20:18:16;21.87;;;11.57;;
13366;SDS011;6752;52.612;13.630;2022-10-30T20:23:13;26.73;;;16.08;;
13366;SDS011;6752;52.612;13.630;2022-10-30T20:33:36;28.83;;;18.75;;
13366;SDS011;6752;52.612;13.630;2022-10-30T20:38:39;22.73;;;17.40;;
13366;SDS011;6752;52.612;13.630;2022-10-30T20:43:41;27.02;;;17.90;;
13366;SDS011;6752;52.612;13.630;2022-10-30T20:48:43;24.33;;;14.18;;
13366;SDS011;6752;52.612;13.630;2022-10-30T20:53:46;24.98;;;15.70;;
13366;SDS011;6752;52.612;13.630;2022-10-30T20:58:48;32.78;;;16.83;;
13366;SDS011;6752;52.612;13.630;2022-10-30T21:03:50;29.05;;;17.35;;
13366;SDS011;6752;52.612;13.630;2022-10-30T21:08:53;30.30;;;17.33;;
13366;SDS011;6752;52.612;13.630;2022-10-30T21:13:56;25.08;;;17.35;;
13366;SDS011;6752;52.612;13.630;2022-10-30T21:19:00;25.45;;;16.42;;
13366;SDS011;6752;52.612;13.630;2022-10-30T21:24:03;23.73;;;15.65;;
13366;SDS011;6752;52.612;13.630;2022-10-30T21:29:05;23.85;;;17.52;;
13366;SDS011;6752;52.612;13.630;2022-10-30T21:34:08;29.10;;;19.05;;
13366;SDS011;6752;52.612;13.630;2022-10-30T21:44:15;34.83;;;23.02;;
13366;SDS011;6752;52.612;13.630;2022-10-30T21:49:20;26.60;;;19.40;;
13366;SDS011;6752;52.612;13.630;2022-10-30T21:54:22;31.55;;;20.42;;
13366;SDS011;6752;52.612;13.630;2022-10-30T22:04:27;30.25;;;19.35;;
13366;SDS011;6752;52.612;13.630;2022-10-30T22:09:29;27.50;;;19.60;;
13366;SDS011;6752;52.612;13.630;2022-10-30T22:14:34;21.77;;;16.42;;
13366;SDS011;6752;52.612;13.630;2022-10-30T22:19:36;19.55;;;15.00;;
13366;SDS011;6752;52.612;13.630;2022-10-30T22:24:42;14.40;;;12.77;;
13366;SDS011;6752;52.612;13.630;2022-10-30T22:29:44;17.90;;;15.05;;
13366;SDS011;6752;52.612;13.630;2022-10-30T22:34:50;27.00;;;20.75;;
13366;SDS011;6752;52.612;13.630;2022-10-30T22:39:52;28.60;;;20.50;;
13366;SDS011;6752;52.612;13.630;2022-10-30T22:44:58;24.48;;;17.50;;
13366;SDS011;6752;52.612;13.630;2022-10-30T22:50:00;20.08;;;15.18;;
13366;SDS011;6752;52.612;13.630;2022-10-30T22:55:05;15.83;;;14.13;;
13366;SDS011;6752;52.612;13.630;2022-10-30T23:00:08;16.40;;;13.73;;
13366;SDS011;6752;52.612;13.630;2022-10-30T23:05:10;20.98;;;18.00;;
13366;SDS011;6752;52.612;13.630;2022-10-30T23:10:13;22.80;;;17.92;;
13366;SDS011;6752;52.612;13.630;2022-10-30T23:15:19;25.80;;;18.73;;
13366;SDS011;6752;52.612;13.630;2022-10-30T23:20:21;22.52;;;17.98;;
13366;SDS011;6752;52.612;13.630;2022-10-30T23:25:26;16.92;;;14.93;;
13366;SDS011;6752;52.612;13.630;2022-10-30T23:30:28;15.90;;;14.20;;
13366;SDS011;6752;52.612;13.630;2022-10-30T23:35:34;21.87;;;16.98;;
13366;SDS011;6752;52.612;13.630;2022-10-30T23:40:36;19.70;;;15.68;;
13366;SDS011;6752;52.612;13.630;2022-10-30T23:45:44;17.20;;;15.25;;
13366;SDS011;6752;52.612;13.630;2022-10-30T23:50:47;20.67;;;16.67;;
13366;SDS011;6752;52.612;13.630;2022-10-30T23:55:52;18.45;;;16.40;;
